Time;durP1;ratioP1;P1;durP2;ratioP2;P2;SDS_P1;SDS_P2;PMS_P1;PMS_P2;Temp;Humidity;BMP_temperature;BMP_pressure;BME280_temperature;BME280_humidity;BME280_pressure;Samples;Min_cycle;Max_cycle;Signal;HPM_P1;HPM_P2
2022/10/11 00:02:16;;;;;;;1999.90;999.90;;;;;;;12.44;100.00;94897.50;5056143;28;20183;-61
2022/10/11 00:04:41;;;;;;;1999.90;999.90;;;;;;;12.42;100.00;94897.94;5056292;28;20207;-62
2022/10/11 00:07:07;;;;;;;1999.90;999.90;;;;;;;12.42;100.00;94895.19;5056121;28;20176;-62
2022/10/11 00:09:32;;;;;;;1999.90;999.90;;;;;;;12.44;100.00;94895.56;5055030;28;20179;-61
2022/10/11 00:11:58;;;;;;;1999.90;999.90;;;;;;;12.45;100.00;94896.31;5056152;28;20238;-62
2022/10/11 00:14:25;;;;;;;1999.90;999.90;;;;;;;12.47;100.00;94899.41;5056298;28;20181;-59
2022/10/11 00:16:50;;;;;;;1999.90;999.90;;;;;;;12.48;100.00;94895.47;5056219;28;20210;-58
2022/10/11 00:19:16;;;;;;;1999.90;999.90;;;;;;;12.48;100.00;94900.94;5055554;28;20318;-58
2022/10/11 00:21:41;;;;;;;1999.90;999.90;;;;;;;12.53;100.00;94898.44;5055283;28;20198;-58
2022/10/11 00:24:07;;;;;;;1999.90;999.90;;;;;;;12.56;100.00;94903.09;5055696;28;20259;-58
2022/10/11 00:26:32;;;;;;;1999.90;999.90;;;;;;;12.63;100.00;94907.63;5056077;28;20172;-58
2022/10/11 00:28:58;;;;;;;1999.90;999.90;;;;;;;12.68;100.00;94909.84;5055665;28;20277;-68
2022/10/11 00:31:23;;;;;;;1999.90;999.90;;;;;;;12.72;100.00;94905.06;5055399;28;20205;-67
2022/10/11 00:33:48;;;;;;;1999.90;999.90;;;;;;;12.76;100.00;94895.53;5055491;28;20180;-66
2022/10/11 00:36:16;;;;;;;1999.90;999.90;;;;;;;12.78;100.00;94889.63;5055247;28;20202;-67
2022/10/11 00:38:42;;;;;;;1999.90;999.90;;;;;;;12.79;100.00;94888.44;5055455;28;20176;-67
2022/10/11 00:41:07;;;;;;;1999.90;999.90;;;;;;;12.83;100.00;94889.13;5055220;28;20180;-66
2022/10/11 00:43:33;;;;;;;1999.90;999.90;;;;;;;12.85;100.00;94886.72;5055515;28;20178;-66
2022/10/11 00:46:03;;;;;;;1999.90;999.90;;;;;;;12.89;100.00;94887.38;5055408;28;20182;-58
2022/10/11 00:48:42;;;;;;;1999.90;999.90;;;;;;;12.91;100.00;94893.22;5055733;28;20165;-62
2022/10/11 00:51:38;;;;;;;1999.90;999.90;;;;;;;12.88;100.00;94889.38;5055732;28;20207;-59
2022/10/11 00:54:05;;;;;;;1999.90;999.90;;;;;;;12.90;100.00;94900.66;5045796;28;20188;-59
2022/10/11 00:56:35;;;;;;;1999.90;999.90;;;;;;;12.88;100.00;94897.59;5055519;28;20183;-59
2022/10/11 00:59:05;;;;;;;1999.90;999.90;;;;;;;12.91;100.00;94904.19;5055550;28;20171;-59
2022/10/11 01:01:30;;;;;;;1999.90;999.90;;;;;;;13.00;100.00;94898.88;5054849;28;20176;-59
2022/10/11 01:03:56;;;;;;;1999.90;999.90;;;;;;;13.07;100.00;94893.22;5054792;28;20186;-59
2022/10/11 01:06:22;;;;;;;1999.90;999.90;;;;;;;13.11;100.00;94891.94;5055057;28;20168;-68
2022/10/11 01:08:48;;;;;;;1999.90;999.90;;;;;;;13.20;100.00;94889.38;5055344;28;20176;-67
2022/10/11 01:11:19;;;;;;;1999.90;999.90;;;;;;;13.26;100.00;94886.88;5054305;28;20201;-67
2022/10/11 01:14:22;;;;;;;1999.90;999.90;;;;;;;13.32;100.00;94879.63;5055260;28;20245;-67
2022/10/11 01:17:17;;;;;;;1999.90;999.90;;;;;;;13.38;100.00;94869.69;5054944;28;20184;-67
2022/10/11 01:20:10;;;;;;;1999.90;999.90;;;;;;;13.43;100.00;94879.34;5054758;28;20235;-66
2022/10/11 01:22:39;;;;;;;1999.90;999.90;;;;;;;13.46;100.00;94871.03;5054858;28;20177;-59
2022/10/11 01:25:16;;;;;;;1999.90;999.90;;;;;;;13.48;100.00;94871.38;5054534;28;20178;-61
2022/10/11 01:27:56;;;;;;;1999.90;999.90;;;;;;;13.50;100.00;94860.72;5054799;28;20208;-62
2022/10/11 01:30:31;;;;;;;1999.90;999.90;;;;;;;13.49;100.00;94856.44;5054895;28;20199;-62
2022/10/11 01:33:09;;;;;;;1999.90;999.90;;;;;;;13.48;100.00;94857.66;5054909;28;20187;-61
2022/10/11 01:35:44;;;;;;;1999.90;999.90;;;;;;;13.47;100.00;94861.56;5054906;28;20173;-62
2022/10/11 01:38:16;;;;;;;1999.90;999.90;;;;;;;13.47;100.00;94856.09;5054612;28;20183;-61
2022/10/11 01:40:54;;;;;;;1999.90;999.90;;;;;;;13.45;100.00;94853.03;5054897;28;20289;-61
2022/10/11 01:43:21;;;;;;;1999.90;999.90;;;;;;;13.46;100.00;94853.78;5054648;28;20162;-59
2022/10/11 01:45:52;;;;;;;1999.90;999.90;;;;;;;13.44;100.00;94854.22;5054532;28;20184;-63
2022/10/11 01:48:17;;;;;;;1999.90;999.90;;;;;;;13.44;100.00;94853.47;5054580;28;20170;-63
2022/10/11 01:50:50;;;;;;;1999.90;999.90;;;;;;;13.44;100.00;94854.22;5054621;28;20200;-63
2022/10/11 01:53:18;;;;;;;1999.90;999.90;;;;;;;13.46;100.00;94846.34;5053679;28;20235;-63
2022/10/11 01:55:59;;;;;;;1999.90;999.90;;;;;;;13.48;100.00;94841.19;5054572;28;20264;-63
2022/10/11 01:58:27;;;;;;;1999.90;999.90;;;;;;;13.50;100.00;94838.78;5053840;28;20178;-63
2022/10/11 02:01:25;;;;;;;1999.90;999.90;;;;;;;13.53;100.00;94837.13;5053895;28;20203;-73
2022/10/11 02:04:04;;;;;;;1999.90;999.90;;;;;;;13.53;100.00;94832.41;5036198;28;20251;-61
2022/10/11 02:06:45;;;;;;;1999.90;999.90;;;;;;;13.54;100.00;94828.47;5054267;28;20235;-61
2022/10/11 02:09:20;;;;;;;1999.90;999.90;;;;;;;13.55;100.00;94830.00;5054308;28;20264;-61
2022/10/11 02:11:46;;;;;;;1999.90;999.90;;;;;;;13.57;100.00;94827.59;5054227;28;20193;-61
2022/10/11 02:14:20;;;;;;;1999.90;999.90;;;;;;;13.58;100.00;94818.16;5053751;28;20178;-61
2022/10/11 02:17:06;;;;;;;1999.90;999.90;;;;;;;13.58;100.00;94801.69;5053694;28;20176;-61
2022/10/11 02:19:35;;;;;;;1999.90;999.90;;;;;;;13.59;100.00;94803.25;5054651;28;20263;-59
2022/10/11 02:22:08;;;;;;;1999.90;999.90;;;;;;;13.60;100.00;94793.03;5053623;28;20226;-67
2022/10/11 02:24:39;;;;;;;1999.90;999.90;;;;;;;13.60;100.00;94788.31;5054141;28;20184;-68
2022/10/11 02:27:05;;;;;;;1999.90;999.90;;;;;;;13.59;100.00;94781.31;5053806;28;20166;-67
2022/10/11 02:29:35;;;;;;;1999.90;999.90;;;;;;;13.58;100.00;94785.22;5054065;28;20204;-67
2022/10/11 02:32:00;;;;;;;1999.90;999.90;;;;;;;13.56;100.00;94784.13;5053668;28;20234;-67
2022/10/11 02:34:26;;;;;;;1999.90;999.90;;;;;;;13.51;100.00;94779.94;5053362;28;20180;-67
2022/10/11 02:37:22;;;;;;;1999.90;999.90;;;;;;;13.50;100.00;94767.44;5053431;28;20180;-63
2022/10/11 02:39:54;;;;;;;1999.90;999.90;;;;;;;13.46;100.00;94766.78;5054164;28;20251;-61
2022/10/11 02:42:25;;;;;;;1999.90;999.90;;;;;;;13.44;100.00;94777.41;5054006;28;20185;-61
2022/10/11 02:45:06;;;;;;;1999.90;999.90;;;;;;;13.41;100.00;94758.31;5053300;28;20200;-61
2022/10/11 02:47:32;;;;;;;1999.90;999.90;;;;;;;13.41;100.00;94761.06;5053003;28;20174;-61
2022/10/11 02:49:58;;;;;;;1999.90;999.90;;;;;;;13.40;100.00;94752.06;5053127;28;20253;-61
2022/10/11 02:52:24;;;;;;;1999.90;999.90;;;;;;;13.39;100.00;94739.56;5053055;28;20176;-62
2022/10/11 02:54:50;;;;;;;1999.90;999.90;;;;;;;13.38;100.00;94733.28;5053428;28;20182;-61
2022/10/11 02:57:15;;;;;;;1999.90;999.90;;;;;;;13.40;100.00;94724.63;5053036;28;20181;-61
2022/10/11 02:59:41;;;;;;;1999.90;999.90;;;;;;;13.43;100.00;94723.75;5053862;28;20177;-57
2022/10/11 03:02:09;;;;;;;1999.90;999.90;;;;;;;13.43;100.00;94712.78;5053132;28;20183;-57
2022/10/11 03:04:34;;;;;;;1999.90;999.90;;;;;;;13.43;100.00;94706.56;5052917;28;20299;-57
2022/10/11 03:06:59;;;;;;;1999.90;999.90;;;;;;;13.41;100.00;94693.28;5053673;28;20255;-57
2022/10/11 03:09:25;;;;;;;1999.90;999.90;;;;;;;13.39;100.00;94684.72;5052936;28;20181;-57
2022/10/11 03:11:51;;;;;;;1999.90;999.90;;;;;;;13.36;100.00;94676.59;5053080;28;20231;-57
2022/10/11 03:14:16;;;;;;;1999.90;999.90;;;;;;;13.32;100.00;94673.94;5053837;28;20185;-65
2022/10/11 03:16:41;;;;;;;1999.90;999.90;;;;;;;13.30;100.00;94671.66;5053172;28;20248;-61
2022/10/11 03:19:07;;;;;;;1999.90;999.90;;;;;;;13.33;100.00;94670.00;5052890;28;20170;-60
2022/10/11 03:21:32;;;;;;;1999.90;999.90;;;;;;;13.33;100.00;94659.03;5053608;28;20187;-60
2022/10/11 03:23:57;;;;;;;1999.90;999.90;;;;;;;13.30;100.00;94655.19;5052765;28;20200;-61
2022/10/11 03:26:23;;;;;;;1999.90;999.90;;;;;;;13.35;100.00;94659.38;5053071;28;20199;-60
2022/10/11 03:28:48;;;;;;;1999.90;999.90;;;;;;;13.33;100.00;94661.78;5053168;28;20181;-60
2022/10/11 03:31:14;;;;;;;1999.90;999.90;;;;;;;13.36;100.00;94663.63;5052977;28;20267;-65
2022/10/11 03:33:39;;;;;;;1999.90;999.90;;;;;;;13.37;100.00;94667.16;5053831;28;20173;-66
2022/10/11 03:36:05;;;;;;;1999.90;999.90;;;;;;;13.37;100.00;94665.19;5053057;28;20192;-58
2022/10/11 03:38:30;;;;;;;1999.90;999.90;;;;;;;13.37;100.00;94664.41;5052434;28;20176;-58
2022/10/11 03:40:55;;;;;;;1999.90;999.90;;;;;;;13.35;100.00;94673.09;5053015;28;20285;-58
2022/10/11 03:43:21;;;;;;;1999.90;999.90;;;;;;;13.31;100.00;94675.16;5052780;28;20177;-58
2022/10/11 03:45:46;;;;;;;1999.90;999.90;;;;;;;13.32;100.00;94676.69;5056598;28;20173;-58
2022/10/11 03:48:12;;;;;;;1999.90;999.90;;;;;;;13.34;100.00;94677.03;5056346;28;20200;-59
2022/10/11 03:50:37;;;;;;;1999.90;999.90;;;;;;;13.32;100.00;94680.22;5056345;28;20200;-59
2022/10/11 03:53:05;;;;;;;1999.90;999.90;;;;;;;13.37;100.00;94686.34;5057246;28;20174;-62
2022/10/11 03:55:30;;;;;;;1999.90;999.90;;;;;;;13.36;100.00;94693.81;5056350;28;20275;-62
2022/10/11 03:57:56;;;;;;;1999.90;999.90;;;;;;;13.38;100.00;94687.88;5056080;28;20282;-65
2022/10/11 04:00:21;;;;;;;1999.90;999.90;;;;;;;13.38;100.00;94689.41;5055999;28;20184;-62
2022/10/11 04:02:46;;;;;;;1999.90;999.90;;;;;;;13.41;100.00;94703.47;5055938;28;20205;-61
2022/10/11 04:05:12;;;;;;;1999.90;999.90;;;;;;;13.43;100.00;94701.06;5055933;28;20191;-61
2022/10/11 04:07:38;;;;;;;1999.90;999.90;;;;;;;13.43;100.00;94707.31;5056262;28;20171;-61
2022/10/11 04:10:04;;;;;;;1999.90;999.90;;;;;;;13.45;100.00;94709.63;5056946;28;20177;-61
2022/10/11 04:12:29;;;;;;;1999.90;999.90;;;;;;;13.45;100.00;94710.41;5056370;28;20186;-58
2022/10/11 04:14:55;;;;;;;1999.90;999.90;;;;;;;13.44;100.00;94711.56;5055968;28;20224;-57
2022/10/11 04:17:20;;;;;;;1999.90;999.90;;;;;;;13.43;100.00;94723.75;5056084;28;20182;-58
2022/10/11 04:19:46;;;;;;;1999.90;999.90;;;;;;;13.45;100.00;94726.84;5055831;28;20221;-58
2022/10/11 04:22:11;;;;;;;1999.90;999.90;;;;;;;13.44;100.00;94719.81;5055834;28;20185;-58
2022/10/11 04:24:37;;;;;;;1999.90;999.90;;;;;;;13.43;100.00;94732.00;5055761;28;20193;-58
2022/10/11 04:27:02;;;;;;;1999.90;999.90;;;;;;;13.43;100.00;94729.25;5055751;28;20193;-62
2022/10/11 04:29:27;;;;;;;1999.90;999.90;;;;;;;13.42;100.00;94732.44;5055391;28;20192;-59
2022/10/11 04:31:53;;;;;;;1999.90;999.90;;;;;;;13.42;100.00;94732.44;5055601;28;20205;-60
2022/10/11 04:34:18;;;;;;;1999.90;999.90;;;;;;;13.42;100.00;94743.41;5055598;28;20181;-60
2022/10/11 04:36:43;;;;;;;1999.90;999.90;;;;;;;13.42;100.00;94732.44;5055552;28;20276;-60
2022/10/11 04:39:09;;;;;;;1999.90;999.90;;;;;;;13.41;100.00;94741.88;5055358;28;20207;-60
2022/10/11 04:41:35;;;;;;;1999.90;999.90;;;;;;;13.36;100.00;94740.44;5055364;28;20180;-59
2022/10/11 04:44:01;;;;;;;1999.90;999.90;;;;;;;13.37;100.00;94743.94;5055073;28;20208;-59
2022/10/11 04:46:27;;;;;;;1999.90;999.90;;;;;;;13.34;100.00;94742.84;5055177;28;20183;-60
2022/10/11 04:48:53;;;;;;;1999.90;999.90;;;;;;;13.33;100.00;94738.56;5055145;28;20262;-66
2022/10/11 04:51:19;;;;;;;1999.90;999.90;;;;;;;13.36;100.00;94745.91;5054806;28;20201;-67
2022/10/11 04:53:44;;;;;;;1999.90;999.90;;;;;;;13.36;100.00;94740.44;5055084;28;20231;-67
2022/10/11 04:56:10;;;;;;;1999.90;999.90;;;;;;;13.36;100.00;94756.13;5054977;28;20196;-67
2022/10/11 04:58:39;;;;;;;1999.90;999.90;;;;;;;13.35;100.00;94749.88;5054660;28;20172;-66
2022/10/11 05:01:04;;;;;;;1999.90;999.90;;;;;;;13.35;100.00;94755.34;5054848;28;20237;-67
2022/10/11 05:03:29;;;;;;;1999.90;999.90;;;;;;;13.32;100.00;94756.22;5054834;28;20203;-72
2022/10/11 05:05:55;;;;;;;1999.90;999.90;;;;;;;13.33;100.00;94760.50;5055249;28;20180;-69
2022/10/11 05:08:22;;;;;;;1999.90;999.90;;;;;;;13.30;100.00;94764.13;5054522;28;20176;-58
2022/10/11 05:10:59;;;;;;;1999.90;999.90;;;;;;;13.28;100.00;94761.03;5054742;28;20204;-57
2022/10/11 05:13:25;;;;;;;1999.90;999.90;;;;;;;13.25;100.00;94750.94;5055165;28;20176;-58
2022/10/11 05:15:51;;;;;;;1999.90;999.90;;;;;;;13.25;100.00;94759.16;5054570;28;20640;-57
2022/10/11 05:18:16;;;;;;;1999.90;999.90;;;;;;;13.25;100.00;94757.19;5054885;28;20188;-58
2022/10/11 05:20:42;;;;;;;1999.90;999.90;;;;;;;13.26;100.00;94764.22;5054042;28;20232;-58
2022/10/11 05:23:07;;;;;;;1999.90;999.90;;;;;;;13.29;100.00;94768.06;5054637;28;20181;-60
2022/10/11 05:25:33;;;;;;;1999.90;999.90;;;;;;;13.25;100.00;94762.69;5054470;28;20188;-70
2022/10/11 05:27:58;;;;;;;1999.90;999.90;;;;;;;13.25;100.00;94776.41;5054498;28;20182;-71
2022/10/11 05:30:23;;;;;;;1999.90;999.90;;;;;;;13.24;100.00;94774.09;5053811;28;20209;-70
2022/10/11 05:32:49;;;;;;;1999.90;999.90;;;;;;;13.24;100.00;94774.09;5054646;28;20183;-66
2022/10/11 05:35:14;;;;;;;1999.90;999.90;;;;;;;13.23;100.00;94778.03;5055135;28;20180;-70
2022/10/11 05:37:40;;;;;;;1999.90;999.90;;;;;;;13.23;100.00;94780.78;5053881;28;20187;-72
2022/10/11 05:40:06;;;;;;;1999.90;999.90;;;;;;;13.25;100.00;94783.84;5053727;28;20214;-59
2022/10/11 05:42:31;;;;;;;1999.90;999.90;;;;;;;13.26;100.00;94779.91;5054497;28;20193;-65
2022/10/11 05:45:00;;;;;;;1999.90;999.90;;;;;;;13.29;100.00;94779.03;5054914;28;20248;-62
2022/10/11 05:47:25;;;;;;;1999.90;999.90;;;;;;;13.32;100.00;94782.91;5053988;28;20177;-59
2022/10/11 05:49:50;;;;;;;1999.90;999.90;;;;;;;13.35;100.00;94785.53;5054433;28;20255;-60
2022/10/11 05:52:20;;;;;;;1999.90;999.90;;;;;;;13.38;100.00;94781.91;5054347;28;20212;-60
2022/10/11 05:54:46;;;;;;;1999.90;999.90;;;;;;;13.43;100.00;94783.34;5053846;28;20275;-59
2022/10/11 05:57:12;;;;;;;1999.90;999.90;;;;;;;13.49;100.00;94785.13;5053451;28;20180;-62
2022/10/11 05:59:37;;;;;;;1999.90;999.90;;;;;;;13.56;100.00;94787.66;5054161;28;20295;-58
2022/10/11 06:02:03;;;;;;;1999.90;999.90;;;;;;;13.62;100.00;94788.63;5053694;28;20315;-66
2022/10/11 06:04:28;;;;;;;1999.90;999.90;;;;;;;13.74;100.00;94782.41;5053369;28;20228;-67
2022/10/11 06:06:53;;;;;;;1999.90;999.90;;;;;;;13.85;100.00;94785.59;5052990;28;20181;-70
2022/10/11 06:09:19;;;;;;;1999.90;999.90;;;;;;;13.98;100.00;94791.09;5053400;28;20188;-68
2022/10/11 06:11:44;;;;;;;1999.90;999.90;;;;;;;14.10;100.00;94782.84;5053584;28;20201;-67
2022/10/11 06:14:10;;;;;;;1999.90;999.90;;;;;;;14.22;100.00;94790.34;5053690;28;20223;-68
2022/10/11 06:16:36;;;;;;;1999.90;999.90;;;;;;;14.35;100.00;94785.59;5053558;28;20174;-67
2022/10/11 06:19:02;;;;;;;1999.90;999.90;;;;;;;14.50;100.00;94794.91;5054684;28;20178;-58
2022/10/11 06:21:27;;;;;;;1999.90;999.90;;;;;;;14.69;100.00;94796.63;5053937;28;20264;-67
2022/10/11 06:23:53;;;;;;;1999.90;999.90;;;;;;;14.89;100.00;94805.34;5053763;28;20269;-66
2022/10/11 06:26:18;;;;;;;1999.90;999.90;;;;;;;14.99;100.00;94801.47;5053198;28;20196;-67
2022/10/11 06:28:44;;;;;;;1999.90;999.90;;;;;;;15.08;100.00;94812.53;5053586;28;20201;-66
2022/10/11 06:31:10;;;;;;;1999.90;999.90;;;;;;;15.09;100.00;94827.84;5052793;28;20197;-65
2022/10/11 06:33:36;;;;;;;1999.90;999.90;;;;;;;15.19;100.00;94840.44;5052908;28;20170;-65
2022/10/11 06:36:05;;;;;;;1999.90;999.90;;;;;;;15.23;100.00;94863.09;5053227;28;20261;-59
2022/10/11 06:38:30;;;;;;;1999.90;999.90;;;;;;;15.31;100.00;94875.41;5053546;28;20170;-61
2022/10/11 06:40:56;;;;;;;1999.90;999.90;;;;;;;15.64;100.00;94878.59;5052984;28;20193;-66
2022/10/11 06:43:21;;;;;;;1999.90;999.90;;;;;;;16.10;100.00;94874.94;5053430;28;20170;-66
2022/10/11 06:45:47;;;;;;;1999.90;999.90;;;;;;;16.50;100.00;94880.50;5053667;28;20224;-66
2022/10/11 06:48:13;;;;;;;1999.90;999.90;;;;;;;16.56;100.00;94884.16;5053494;28;20169;-68
2022/10/11 06:50:38;;;;;;;1999.90;999.90;;;;;;;16.43;100.00;94898.09;5053133;28;20197;-66
2022/10/11 06:53:06;;;;;;;1999.90;999.90;;;;;;;16.26;100.00;94916.81;5053176;28;20177;-66
2022/10/11 06:55:31;;;;;;;1999.90;999.90;;;;;;;16.12;100.00;94933.84;5052699;28;20177;-61
2022/10/11 06:57:57;;;;;;;1999.90;999.90;;;;;;;16.12;100.00;94942.13;5052883;28;20181;-63
2022/10/11 07:00:22;;;;;;;1999.90;999.90;;;;;;;16.01;100.00;94950.00;5052730;28;20185;-64
2022/10/11 07:02:48;;;;;;;1999.90;999.90;;;;;;;15.91;100.00;94970.44;5052880;28;20181;-64
2022/10/11 07:05:14;;;;;;;1999.90;999.90;;;;;;;15.83;100.00;94977.41;5053050;28;20194;-65
2022/10/11 07:07:39;;;;;;;1999.90;999.90;;;;;;;15.85;100.00;94980.47;5052947;28;20174;-63
2022/10/11 07:10:05;;;;;;;1999.90;999.90;;;;;;;15.80;100.00;94983.81;5053972;28;20175;-63
2022/10/11 07:12:31;;;;;;;1999.90;999.90;;;;;;;15.75;100.00;94997.38;5053727;28;20189;-65
2022/10/11 07:14:56;;;;;;;1999.90;999.90;;;;;;;15.73;100.00;95002.53;5054317;28;20171;-59
2022/10/11 07:17:21;;;;;;;1999.90;999.90;;;;;;;15.78;100.00;95007.50;5053154;28;20228;-64
2022/10/11 07:19:47;;;;;;;1999.90;999.90;;;;;;;15.77;100.00;95012.22;5054912;28;20217;-64
2022/10/11 07:22:12;;;;;;;1999.90;999.90;;;;;;;15.76;100.00;95021.72;5056534;28;20269;-64
2022/10/11 07:24:38;;;;;;;1999.90;999.90;;;;;;;15.70;100.00;95029.00;5056595;28;20180;-64
2022/10/11 07:27:03;;;;;;;1999.90;999.90;;;;;;;15.74;100.00;95029.63;5056545;28;20178;-64
2022/10/11 07:29:29;;;;;;;1999.90;999.90;;;;;;;15.78;100.00;95033.03;5056961;28;20232;-64
2022/10/11 07:31:54;;;;;;;1999.90;999.90;;;;;;;15.79;100.00;95037.34;5056603;28;20209;-65
2022/10/11 07:34:21;;;;;;;1999.90;999.90;;;;;;;15.78;100.00;95035.78;5057006;28;20174;-64
2022/10/11 07:36:47;;;;;;;1999.90;999.90;;;;;;;15.72;100.00;95040.34;5056305;28;20170;-65
2022/10/11 07:39:12;;;;;;;1999.90;999.90;;;;;;;15.83;100.00;95042.72;5056506;28;20261;-64
2022/10/11 07:41:37;;;;;;;1999.90;999.90;;;;;;;15.90;100.00;95046.03;5056639;28;20209;-65
2022/10/11 07:44:03;;;;;;;1999.90;999.90;;;;;;;15.96;100.00;95035.97;5055958;28;20178;-66
2022/10/11 07:46:29;;;;;;;1999.90;999.90;;;;;;;15.96;100.00;95040.72;5056072;28;20182;-65
2022/10/11 07:48:55;;;;;;;1999.90;999.90;;;;;;;16.07;100.00;95041.13;5057131;28;20253;-65
2022/10/11 07:51:22;;;;;;;1999.90;999.90;;;;;;;16.13;100.00;95040.09;5056591;28;20193;-65
2022/10/11 07:53:55;;;;;;;1999.90;999.90;;;;;;;16.21;100.00;95046.13;5055624;28;20182;-62
2022/10/11 07:56:25;;;;;;;1999.90;999.90;;;;;;;16.21;100.00;95046.13;5056951;28;20170;-62
2022/10/11 07:58:55;;;;;;;1999.90;999.90;;;;;;;16.31;100.00;95040.22;5056320;28;20166;-62
2022/10/11 08:01:22;;;;;;;1999.90;999.90;;;;;;;16.42;100.00;95051.66;5055683;28;20263;-62
2022/10/11 08:03:48;;;;;;;1999.90;999.90;;;;;;;16.53;100.00;95045.00;5055599;28;20190;-63
2022/10/11 08:06:17;;;;;;;1999.90;999.90;;;;;;;16.53;100.00;95045.00;5056486;28;20180;-62
2022/10/11 08:08:42;;;;;;;1999.90;999.90;;;;;;;16.56;100.00;95049.59;5056072;28;20207;-64
2022/10/11 08:11:08;;;;;;;1999.90;999.90;;;;;;;16.62;100.00;95053.31;5056660;28;20198;-67
2022/10/11 08:13:34;;;;;;;1999.90;999.90;;;;;;;16.70;100.00;95065.63;5055779;28;20182;-66
2022/10/11 08:16:00;;;;;;;1999.90;999.90;;;;;;;16.75;100.00;95057.53;5055882;28;20177;-67
2022/10/11 08:18:25;;;;;;;1999.90;999.90;;;;;;;16.88;100.00;95055.47;5055577;28;20173;-65
2022/10/11 08:20:51;;;;;;;1999.90;999.90;;;;;;;16.96;100.00;95055.97;5055913;28;20313;-66
2022/10/11 08:23:18;;;;;;;1999.90;999.90;;;;;;;17.13;100.00;95060.03;5056197;28;20176;-66
2022/10/11 08:25:46;;;;;;;1999.90;999.90;;;;;;;17.28;100.00;95059.03;5055841;28;20197;-66
2022/10/11 08:28:15;;;;;;;1999.90;999.90;;;;;;;17.51;100.00;95058.53;5056191;28;20181;-60
2022/10/11 08:30:47;;;;;;;1999.90;999.90;;;;;;;17.70;100.00;95060.09;5054911;28;20197;-58
2022/10/11 08:33:12;;;;;;;1999.90;999.90;;;;;;;17.84;100.00;95058.75;5055263;28;20187;-58
2022/10/11 08:35:37;;;;;;;1999.90;999.90;;;;;;;17.89;100.00;95056.13;5056143;28;20178;-58
2022/10/11 08:38:03;;;;;;;1999.90;999.90;;;;;;;18.06;100.00;95062.94;5055182;28;20177;-59
2022/10/11 08:40:28;;;;;;;1999.90;999.90;;;;;;;18.21;100.00;95065.88;5055434;28;20182;-60
2022/10/11 08:43:02;;;;;;;1999.90;999.90;;;;;;;18.44;100.00;95070.81;5055154;28;20181;-59
2022/10/11 08:45:51;;;;;;;1999.90;999.90;;;;;;;18.72;100.00;95050.19;5055934;28;20174;-62
2022/10/11 08:48:25;;;;;;;1999.90;999.90;;;;;;;18.88;100.00;95049.84;5055015;28;20202;-67
2022/10/11 08:50:53;;;;;;;1999.90;999.90;;;;;;;18.98;100.00;95059.66;5054762;28;20212;-67
2022/10/11 08:53:32;;;;;;;1999.90;999.90;;;;;;;19.73;100.00;95047.38;5054567;28;20174;-66
2022/10/11 08:55:58;;;;;;;1999.90;999.90;;;;;;;20.25;100.00;95030.09;5055403;28;20174;-66
2022/10/11 08:58:37;;;;;;;1999.90;999.90;;;;;;;20.76;100.00;95018.69;5054647;28;20174;-66
2022/10/11 09:01:05;;;;;;;1999.90;999.90;;;;;;;20.74;100.00;95027.50;5055581;28;20169;-65
2022/10/11 09:03:38;;;;;;;1999.90;999.90;;;;;;;20.87;100.00;95025.19;5054808;28;20177;-63
2022/10/11 09:06:16;;;;;;;1999.90;999.90;;;;;;;20.45;100.00;95026.69;5055483;28;20169;-63
2022/10/11 09:08:56;;;;;;;1999.90;999.90;;;;;;;20.04;100.00;95058.88;5055180;28;20178;-62
2022/10/11 09:11:22;;;;;;;1999.90;999.90;;;;;;;20.05;100.00;95065.97;5054980;28;20205;-63
2022/10/11 09:13:48;;;;;;;1999.90;999.90;;;;;;;20.14;100.00;95067.94;5055156;28;20174;-63
2022/10/11 09:16:16;;;;;;;1999.90;999.90;;;;;;;20.29;100.00;95068.75;5054694;28;20177;-63
2022/10/11 09:18:47;;;;;;;1999.90;999.90;;;;;;;20.54;100.00;95059.94;5054399;28;20204;-63
2022/10/11 09:21:31;;;;;;;1999.90;999.90;;;;;;;20.95;100.00;95040.28;5054173;28;20308;-62
2022/10/11 09:24:20;;;;;;;1999.90;999.90;;;;;;;21.06;100.00;95043.25;5055109;28;20193;-66
2022/10/11 09:27:01;;;;;;;1999.90;999.90;;;;;;;21.12;100.00;95046.88;5055200;28;20223;-62
2022/10/11 09:29:40;;;;;;;1999.90;999.90;;;;;;;21.33;100.00;95034.59;5053994;28;20187;-62
2022/10/11 09:32:14;;;;;;;1999.90;999.90;;;;;;;21.50;100.00;95043.97;5054240;28;20221;-63
2022/10/11 09:34:39;;;;;;;1999.90;999.90;;;;;;;21.47;100.00;95042.13;5054866;28;20166;-63
2022/10/11 09:37:21;;;;;;;1999.90;999.90;;;;;;;22.02;100.00;95022.72;5053906;28;20174;-63
2022/10/11 09:40:01;;;;;;;1999.90;999.90;;;;;;;23.49;100.00;94984.97;5054017;28;20237;-63
2022/10/11 09:42:26;;;;;;;1999.90;999.90;;;;;;;24.12;100.00;94947.28;5054256;28;20168;-60
2022/10/11 09:44:52;;;;;;;1999.90;999.90;;;;;;;23.21;100.00;94903.97;5054201;28;20173;-63
2022/10/11 09:47:26;;;;;;;1999.90;999.90;;;;;;;22.46;100.00;94912.66;5053666;28;20178;-63
2022/10/11 09:50:05;;;;;;;1999.90;999.90;;;;;;;21.71;100.00;94725.03;5054044;28;20219;-64
2022/10/11 09:52:32;;;;;;;1999.90;999.90;;;;;;;20.96;100.00;94594.75;5053645;28;20193;-65
2022/10/11 09:55:00;;;;;;;1999.90;999.90;;;;;;;20.36;100.00;94447.75;5054224;28;20182;-65
2022/10/11 09:57:31;;;;;;;1999.90;999.90;;;;;;;20.23;100.00;94366.97;5053408;28;20178;-64
2022/10/11 10:00:17;;;;;;;1999.90;999.90;;;;;;;19.71;100.00;94343.25;5054285;28;20272;-65
2022/10/11 10:02:54;;;;;;;1999.90;999.90;;;;;;;19.19;100.00;94352.63;5053916;28;20269;-64
2022/10/11 10:05:21;;;;;;;1999.90;999.90;;;;;;;19.14;100.00;94348.56;5053731;28;20204;-62
2022/10/11 10:07:57;;;;;;;1999.90;999.90;;;;;;;18.91;100.00;94415.91;5054023;28;20268;-63
2022/10/11 10:10:42;;;;;;;1999.90;999.90;;;;;;;18.58;100.00;94458.91;5053445;28;20264;-64
2022/10/11 10:13:19;;;;;;;1999.90;999.90;;;;;;;18.79;100.00;94507.53;5054286;28;20174;-65
2022/10/11 10:15:49;;;;;;;1999.90;999.90;;;;;;;18.80;100.00;94531.22;5053560;28;20201;-63
2022/10/11 10:18:36;;;;;;;1999.90;999.90;;;;;;;18.86;100.00;94551.41;5053976;28;20212;-61
2022/10/11 10:21:05;;;;;;;1999.90;999.90;;;;;;;18.71;100.00;94586.63;5053753;28;20226;-64
2022/10/11 10:23:33;;;;;;;1999.90;999.90;;;;;;;18.59;100.00;94640.22;5053210;28;20174;-65
2022/10/11 10:26:17;;;;;;;1999.90;999.90;;;;;;;18.74;100.00;94649.31;5053341;28;20170;-66
2022/10/11 10:29:08;;;;;;;1999.90;999.90;;;;;;;18.88;100.00;94645.81;5053123;28;20274;-65
2022/10/11 10:32:00;;;;;;;1999.90;999.90;;;;;;;18.98;100.00;94636.94;5054102;28;20236;-66
2022/10/11 10:34:37;;;;;;;1999.90;999.90;;;;;;;19.15;100.00;94632.47;5053140;28;20198;-66
2022/10/11 10:37:14;;;;;;;1999.90;999.90;;;;;;;19.19;100.00;94618.41;5054304;28;20166;-60
2022/10/11 10:39:53;;;;;;;1999.90;999.90;;;;;;;19.37;100.00;94604.41;5053394;28;20241;-62
2022/10/11 10:42:20;;;;;;;1999.90;999.90;;;;;;;19.66;100.00;94607.13;5053383;28;20178;-63
2022/10/11 10:44:53;;;;;;;1999.90;999.90;;;;;;;19.76;100.00;94597.47;5052948;28;20178;-62
2022/10/11 10:47:37;;;;;;;1999.90;999.90;;;;;;;20.22;100.00;94581.75;5053237;28;20162;-63
2022/10/11 10:50:13;;;;;;;1999.90;999.90;;;;;;;20.22;100.00;94581.75;5052959;28;20252;-62
2022/10/11 10:53:01;;;;;;;1999.90;999.90;;;;;;;20.98;100.00;94560.94;5053949;28;20323;-62
2022/10/11 10:55:38;;;;;;;1999.90;999.90;;;;;;;21.66;100.00;94531.94;5054316;28;20240;-64
2022/10/11 10:58:20;;;;;;;1999.90;999.90;;;;;;;21.57;100.00;94709.25;5057734;28;20170;-59